Flight Track Log - Related Links

Times and Time Zones

All times are in EDT time to prevent confusion due to time zone crossing. See the LIA565 flight status page for this flight to view local times or setup timezone preferences in your user account.

Time Position Orientation Groundspeed Altitude Reporting Facility
EDT Latitude Longitude Course Direction KTS MPH feet Rate Location/Type
Wed 04:53:00 PM 14.7450 -60.7081 144° Southeast  Level Estimated
Wed 04:54:00 PM 14.6781 -60.6590 145° Southeast  Level Estimated
Wed 04:55:00 PM 14.6112 -60.6099 145° Southeast  Level Estimated
Wed 04:56:00 PM 14.5443 -60.5609 145° Southeast  Level Estimated
Wed 04:57:00 PM 14.4774 -60.5118 145° Southeast  Level Estimated
Wed 04:58:00 PM 14.4104 -60.4628 145° Southeast  Level Estimated
Wed 04:59:00 PM 14.3435 -60.4139 145° Southeast  Level Estimated
Wed 05:00:00 PM 14.2765 -60.3649 145° Southeast  Level Estimated
Wed 05:01:00 PM 14.2095 -60.3160 145° Southeast  Level Estimated
Wed 05:02:00 PM 14.1426 -60.2671 145° Southeast  Level Estimated
Wed 05:03:00 PM 14.0756 -60.2183 145° Southeast  Level Estimated
Wed 05:04:00 PM 14.0086 -60.1694 145° Southeast  Level Estimated
Wed 05:05:00 PM 13.9416 -60.1206 145° Southeast  Level Estimated
Wed 05:06:00 PM 13.8745 -60.0719 145° Southeast  Level Estimated
Wed 05:07:00 PM 13.8075 -60.0231 145° Southeast  Level Estimated
Wed 05:08:00 PM 13.7405 -59.9744 145° Southeast  Level Estimated
Wed 05:09:00 PM 13.6734 -59.9257 145° Southeast  Level Estimated
Wed 05:10:00 PM 13.6063 -59.8771 145° Southeast  Level Estimated
Wed 05:11:00 PM 13.5393 -59.8284 145° Southeast  Level Estimated
Wed 05:12:00 PM 13.4722 -59.7798 145° Southeast  Level Estimated
Wed 05:13:00 PM 13.4051 -59.7313 145° Southeast  Level Estimated
Wed 05:14:00 PM 13.3380 -59.6827 145° Southeast  Level Estimated
Wed 05:15:00 PM 13.2709 -59.6342 145° Southeast  Level Estimated
Wed 05:16:00 PM 13.2038 -59.5857 145° Southeast  Level Estimated
Wed 05:17:00 PM 13.1367 -59.5372 145° Southeast  Level Estimated
Wed 05:18:00 PM 13.0746 -59.4925 145° Southeast  Level Estimated
Wed 05:19:00 PM 13.0746 -59.4925 52° Northeast  Level Estimated
Wed 05:20:00 PM 13.0746 -59.4925 52° Northeast  Level Estimated
Wed 05:21:00 PM 13.0746 -59.4925 52° Northeast  Level Estimated
Wed 05:22:00 PM 13.0746 -59.4925 52° Northeast  Level Estimated
Wed 05:23:00 PM 13.0746 -59.4925 52° Northeast  Level Estimated
Wed 05:24:00 PM 13.0746 -59.4925 52° Northeast  Level Estimated
Wed 05:25:00 PM 13.0746 -59.4925 52° Northeast  Level Estimated
Wed 05:26:00 PM 13.0746 -59.4925 52° Northeast  Level Estimated
Wed 05:27:00 PM 13.0746 -59.4925 52° Northeast  Level Estimated
Wed 05:28:00 PM 13.0746 -59.4925 52° Northeast  Level Estimated
Wed 05:29:00 PM 13.0746 -59.4925 52° Northeast  Level Estimated
Wed 05:30:00 PM 13.0746 -59.4925 52° Northeast  Level Estimated
Wed 05:31:00 PM 13.0746 -59.4925 52° Northeast  Level Estimated
Wed 05:32:00 PM 13.0746 -59.4925 52° Northeast  Level Estimated
Wed 05:33:00 PM 13.0746 -59.4925 52° Northeast  Level Estimated
Wed 05:34:00 PM 13.0746 -59.4925 52° Northeast  Level Estimated

Login

Don't have an account? Register now (free) for customized features, flight alerts, and more!